createdAt,value
2024-04-18T00:00:22.439Z,0.50
2024-04-18T00:05:24.574Z,0.57
2024-04-18T00:10:26.613Z,1.00
2024-04-18T00:15:28.840Z,1.65
2024-04-18T00:20:30.912Z,1.95
2024-04-18T00:25:53.978Z,2.33
2024-04-18T00:30:58.208Z,2.53
2024-04-18T00:36:00.246Z,3.42
2024-04-18T00:41:22.196Z,1.98
2024-04-18T00:46:32.982Z,4.22
2024-04-18T00:51:35.949Z,1.88
2024-04-18T00:56:41.811Z,3.80
2024-04-18T01:02:02.430Z,2.97
2024-04-18T01:07:10.817Z,1.98
2024-04-18T01:12:21.939Z,4.22
2024-04-18T01:17:24.191Z,1.00
2024-04-18T01:22:27.069Z,1.42
2024-04-18T01:27:29.164Z,1.42
2024-04-18T01:32:37.716Z,2.70
2024-04-18T01:37:39.839Z,1.25
2024-04-18T01:42:48.918Z,0.80
2024-04-18T01:47:59.788Z,2.30
2024-04-18T01:53:15.715Z,0.68
2024-04-18T01:58:17.760Z,0.80
2024-04-18T02:03:28.309Z,1.88
2024-04-18T02:08:48.197Z,0.70
2024-04-18T02:14:13.974Z,1.00
2024-04-18T02:19:16.085Z,0.80
2024-04-18T02:24:40.060Z,6.57
2024-04-18T02:29:42.168Z,1.10
2024-04-18T02:34:44.162Z,0.70
2024-04-18T02:40:01.308Z,2.83
2024-04-18T02:45:03.459Z,1.60
2024-04-18T02:50:25.486Z,2.33
2024-04-18T02:55:27.518Z,0.80
2024-04-18T03:00:32.688Z,6.53
2024-04-18T03:06:05.272Z,5.65
2024-04-18T03:11:07.442Z,2.20
2024-04-18T03:16:14.665Z,1.40
2024-04-18T03:21:18.029Z,2.97
2024-04-18T03:26:20.141Z,2.28
2024-04-18T03:31:22.258Z,2.58
2024-04-18T03:36:24.321Z,1.25
2024-04-18T03:41:26.991Z,1.38
2024-04-18T03:46:47.883Z,1.75
2024-04-18T03:52:08.842Z,1.88
2024-04-18T03:57:10.883Z,2.33
2024-04-18T04:02:33.994Z,3.53
2024-04-18T04:07:36.151Z,5.20
2024-04-18T04:12:38.540Z,2.42
2024-04-18T04:17:46.815Z,2.40
2024-04-18T04:23:09.339Z,2.83
2024-04-18T04:28:30.459Z,3.63
2024-04-18T04:33:33.956Z,3.10
2024-04-18T04:38:36.103Z,2.60
2024-04-18T04:43:40.166Z,2.67
2024-04-18T04:48:51.436Z,3.22
2024-04-18T04:53:54.645Z,3.25
2024-04-18T04:59:15.096Z,3.70
2024-04-18T05:04:24.759Z,6.00
2024-04-18T05:09:26.862Z,3.78
2024-04-18T05:14:29.088Z,4.68
2024-04-18T05:19:31.122Z,4.55
2024-04-18T05:24:35.437Z,4.90
2024-04-18T05:29:56.273Z,4.93
2024-04-18T05:34:58.303Z,6.18
2024-04-18T05:40:00.462Z,4.90
2024-04-18T05:45:02.677Z,5.88
2024-04-18T05:50:05.234Z,4.55
2024-04-18T05:55:07.489Z,3.13
2024-04-18T06:00:15.786Z,3.53
2024-04-18T06:05:17.965Z,3.35
2024-04-18T06:10:38.673Z,3.85
2024-04-18T06:15:53.171Z,3.70
2024-04-18T06:20:55.308Z,4.10
2024-04-18T06:25:58.391Z,3.05
2024-04-18T06:31:00.584Z,2.50
2024-04-18T06:36:03.472Z,2.80
2024-04-18T06:41:08.875Z,2.33
2024-04-18T06:46:17.106Z,2.10
2024-04-18T06:51:19.180Z,2.85
2024-04-18T06:56:23.289Z,1.70
2024-04-18T07:01:25.489Z,1.55
2024-04-18T07:06:33.525Z,2.30
2024-04-18T07:11:38.536Z,0.85
2024-04-18T07:16:40.791Z,0.90
2024-04-18T07:22:01.711Z,1.10
2024-04-18T07:27:23.860Z,1.35
2024-04-18T07:32:25.971Z,1.50
2024-04-18T07:37:31.422Z,1.10
2024-04-18T07:42:34.986Z,1.77
2024-04-18T07:47:37.338Z,1.00
2024-04-18T07:52:42.879Z,1.50
2024-04-18T07:57:49.575Z,2.47
2024-04-18T08:02:54.734Z,1.20
2024-04-18T08:08:00.292Z,0.90
2024-04-18T08:13:07.804Z,1.38
2024-04-18T08:18:12.530Z,0.98
2024-04-18T08:23:20.836Z,1.30
2024-04-18T08:28:23.033Z,0.43
2024-04-18T08:33:25.085Z,0.20
2024-04-18T08:38:27.127Z,1.48
2024-04-18T08:43:29.203Z,1.27
2024-04-18T08:48:33.217Z,3.88
2024-04-18T08:53:35.844Z,0.57
2024-04-18T08:58:38.246Z,1.20
2024-04-18T09:03:40.346Z,3.70
2024-04-18T09:08:43.679Z,1.33
2024-04-18T09:13:46.671Z,2.30
2024-04-18T09:18:48.968Z,4.05
2024-04-18T09:23:52.064Z,2.00
2024-04-18T09:28:54.152Z,2.78
2024-04-18T09:33:56.234Z,0.80
2024-04-18T09:39:01.924Z,1.25
2024-04-18T09:44:19.678Z,2.10
2024-04-18T09:49:23.828Z,5.65
2024-04-18T09:54:27.056Z,1.00
2024-04-18T09:59:29.674Z,0.90
2024-04-18T10:04:32.342Z,4.57
2024-04-18T10:09:37.140Z,1.15
2024-04-18T10:14:39.472Z,1.25
2024-04-18T10:19:46.065Z,1.30
2024-04-18T10:24:51.867Z,1.30
2024-04-18T10:29:58.340Z,1.85
2024-04-18T10:35:01.002Z,2.90
2024-04-18T10:40:04.990Z,2.40
2024-04-18T10:45:09.036Z,3.28
2024-04-18T10:50:11.193Z,3.60
2024-04-18T10:55:13.187Z,2.80
2024-04-18T11:00:18.568Z,2.40
2024-04-18T11:05:20.651Z,2.30
2024-04-18T11:10:29.159Z,2.25
2024-04-18T11:15:32.584Z,2.65
2024-04-18T11:20:35.751Z,2.67
2024-04-18T11:25:39.041Z,2.83
2024-04-18T11:30:44.392Z,2.83
2024-04-18T11:35:46.601Z,3.03
2024-04-18T11:40:48.735Z,3.03
2024-04-18T11:45:50.817Z,5.18
2024-04-18T11:50:54.015Z,4.00
2024-04-18T11:55:57.964Z,4.45
2024-04-18T12:01:04.656Z,7.37
2024-04-18T12:06:14.765Z,5.68
2024-04-18T12:11:25.971Z,6.97
2024-04-18T12:16:45.384Z,6.10
2024-04-18T12:21:47.491Z,5.78
2024-04-18T12:26:49.561Z,6.65
2024-04-18T12:31:51.629Z,5.43
2024-04-18T12:36:54.000Z,5.80
2024-04-18T12:41:57.586Z,5.88
2024-04-18T12:47:11.079Z,4.95
2024-04-18T12:52:23.841Z,5.15
2024-04-18T12:57:36.996Z,6.13
2024-04-18T13:02:39.273Z,4.05
2024-04-18T13:07:41.517Z,8.48
2024-04-18T13:12:55.876Z,5.47
2024-04-18T13:18:09.916Z,5.30
2024-04-18T13:23:32.382Z,11.75
2024-04-18T13:28:34.984Z,7.60
2024-04-18T13:33:55.890Z,4.30
2024-04-18T13:38:59.144Z,3.00
2024-04-18T13:44:07.797Z,3.78
2024-04-18T13:49:19.678Z,5.60
2024-04-18T13:54:29.405Z,8.02
2024-04-18T13:59:33.589Z,6.80
2024-04-18T14:04:36.054Z,5.80
2024-04-18T14:09:57.257Z,6.30
2024-04-18T14:15:32.632Z,6.55
2024-04-18T14:20:58.755Z,6.00
2024-04-18T14:26:03.650Z,6.28
2024-04-18T14:31:30.934Z,5.75
2024-04-18T14:36:55.494Z,6.28
2024-04-18T14:42:00.314Z,5.10
2024-04-18T14:47:02.882Z,4.38
2024-04-18T14:52:08.897Z,4.20
2024-04-18T14:57:15.629Z,4.20
2024-04-18T15:02:19.507Z,4.72
2024-04-18T15:07:51.580Z,4.95
2024-04-18T15:12:56.360Z,6.10
2024-04-18T15:17:59.417Z,5.20
2024-04-18T15:23:05.517Z,6.35
2024-04-18T15:28:11.131Z,5.40
2024-04-18T15:33:14.327Z,4.55
2024-04-18T15:38:25.343Z,5.93
2024-04-18T15:43:49.265Z,4.70
2024-04-18T15:49:11.134Z,4.30
2024-04-18T15:54:13.765Z,5.90
2024-04-18T15:59:17.681Z,4.15
2024-04-18T16:04:28.152Z,3.08
2024-04-18T16:09:39.321Z,4.50
2024-04-18T16:14:57.318Z,3.60
2024-04-18T16:20:00.276Z,3.92
2024-04-18T16:25:13.006Z,2.80
2024-04-18T16:30:15.060Z,2.30
2024-04-18T16:35:17.558Z,2.45
2024-04-18T16:40:19.717Z,3.00
2024-04-18T16:45:33.967Z,2.58
2024-04-18T16:50:36.667Z,2.50
2024-04-18T16:55:38.776Z,2.40
2024-04-18T17:00:49.775Z,3.33
2024-04-18T17:06:00.055Z,2.42
2024-04-18T17:11:02.129Z,3.03
2024-04-18T17:16:22.714Z,3.15
2024-04-18T17:21:24.866Z,4.53
2024-04-18T17:26:29.235Z,3.08
2024-04-18T17:31:31.561Z,3.08
2024-04-18T17:36:33.739Z,2.17
2024-04-18T17:41:45.352Z,2.22
2024-04-18T17:47:00.621Z,2.30
2024-04-18T17:52:02.908Z,1.88
2024-04-18T17:57:05.253Z,2.33
2024-04-18T18:02:07.562Z,2.10
2024-04-18T18:07:29.596Z,2.85
2024-04-18T18:12:31.792Z,1.70
2024-04-18T18:17:36.054Z,5.57
2024-04-18T18:22:38.191Z,2.45
2024-04-18T18:27:40.346Z,3.00
2024-04-18T18:33:02.391Z,5.35
2024-04-18T18:38:05.234Z,4.07
2024-04-18T18:43:08.157Z,2.83
2024-04-18T18:48:10.698Z,3.10
2024-04-18T18:53:32.844Z,3.33
2024-04-18T18:58:34.925Z,3.33
2024-04-18T19:03:37.594Z,4.07
2024-04-18T19:08:39.868Z,3.95
2024-04-18T19:13:41.994Z,2.83
2024-04-18T19:18:50.147Z,2.83
2024-04-18T19:23:52.285Z,2.83
2024-04-18T19:28:54.388Z,2.80
2024-04-18T19:33:56.686Z,3.17
2024-04-18T19:38:58.815Z,2.92
2024-04-18T19:44:00.911Z,3.03
2024-04-18T19:49:03.996Z,3.42
2024-04-18T19:54:26.597Z,3.70
2024-04-18T19:59:28.658Z,3.03
2024-04-18T20:04:30.752Z,9.25
2024-04-18T20:09:35.757Z,4.35
2024-04-18T20:14:39.102Z,3.53
2024-04-18T20:19:41.272Z,2.70
2024-04-18T20:24:43.465Z,2.97
2024-04-18T20:30:09.185Z,2.88
2024-04-18T20:35:32.738Z,3.55
2024-04-18T20:40:34.944Z,5.00
2024-04-18T20:45:37.003Z,4.68
2024-04-18T20:50:39.084Z,3.35
2024-04-18T20:55:43.136Z,3.50
2024-04-18T21:00:46.122Z,3.30
2024-04-18T21:05:48.841Z,4.57
2024-04-18T21:10:51.573Z,3.88
2024-04-18T21:15:57.839Z,3.83
2024-04-18T21:21:00.001Z,3.47
2024-04-18T21:26:02.082Z,3.50
2024-04-18T21:31:04.291Z,3.38
2024-04-18T21:36:06.622Z,4.00
2024-04-18T21:41:08.742Z,5.70
2024-04-18T21:46:10.751Z,2.50
2024-04-18T21:51:13.382Z,3.20
2024-04-18T21:56:15.494Z,3.05
2024-04-18T22:01:17.578Z,2.97
2024-04-18T22:06:19.692Z,3.83
2024-04-18T22:11:21.778Z,3.20
2024-04-18T22:16:23.868Z,3.40
2024-04-18T22:21:27.039Z,3.53
2024-04-18T22:26:29.077Z,2.80
2024-04-18T22:31:31.333Z,3.20
2024-04-18T22:36:33.372Z,3.83
2024-04-18T22:41:35.442Z,4.88
2024-04-18T22:46:37.484Z,3.70
2024-04-18T22:51:39.509Z,3.80
2024-04-18T22:56:41.514Z,3.75
2024-04-18T23:01:44.197Z,4.25
2024-04-18T23:06:46.335Z,3.70
2024-04-18T23:11:48.364Z,4.10
2024-04-18T23:16:50.353Z,4.40
2024-04-18T23:21:52.320Z,4.07
2024-04-18T23:27:13.560Z,4.20
2024-04-18T23:32:15.593Z,3.88
2024-04-18T23:37:17.643Z,4.40
2024-04-18T23:42:19.722Z,4.30
2024-04-18T23:47:21.782Z,4.43
2024-04-18T23:52:23.827Z,5.45
2024-04-18T23:57:27.562Z,5.65
